Time;durP1;ratioP1;P1;durP2;ratioP2;P2;SDS_P1;SDS_P2;PMS_P1;PMS_P2;Temp;Humidity;BMP_temperature;BMP_pressure;BME280_temperature;BME280_humidity;BME280_pressure;Samples;Min_cycle;Max_cycle;Signal;HPM_P1;HPM_P2
2023/06/30 00:01:57;;;;;;;875.03;815.33;;;15.80;99.90;;;;;;5075218;28;20481;-68
2023/06/30 00:04:26;;;;;;;881.80;820.70;;;15.80;99.90;;;;;;5074697;28;20458;-68
2023/06/30 00:06:56;;;;;;;850.80;795.20;;;15.70;99.90;;;;;;5075137;28;20450;-69
2023/06/30 00:09:24;;;;;;;868.30;810.10;;;15.70;99.90;;;;;;5074938;28;20851;-68
2023/06/30 00:11:52;;;;;;;878.07;819.60;;;15.70;99.90;;;;;;5075287;28;20473;-68
2023/06/30 00:14:19;;;;;;;858.20;802.07;;;15.70;99.90;;;;;;5074590;28;20458;-68
2023/06/30 00:16:46;;;;;;;906.33;844.77;;;15.50;99.90;;;;;;5075109;28;20477;-67
2023/06/30 00:19:13;;;;;;;895.00;835.10;;;15.50;99.90;;;;;;5074786;28;20450;-67
2023/06/30 00:21:41;;;;;;;957.17;891.70;;;15.50;99.90;;;;;;5074897;28;20458;-68
2023/06/30 00:24:10;;;;;;;954.00;889.40;;;15.50;99.90;;;;;;5074649;28;20457;-67
2023/06/30 00:26:37;;;;;;;988.93;919.53;;;15.40;99.90;;;;;;5074900;28;20447;-67
2023/06/30 00:29:04;;;;;;;924.00;862.33;;;15.50;99.90;;;;;;5074840;28;20447;-68
2023/06/30 00:31:31;;;;;;;894.47;833.93;;;15.40;99.90;;;;;;5074859;28;20531;-68
2023/06/30 00:33:58;;;;;;;887.00;828.30;;;15.40;99.90;;;;;;5073615;28;20447;-68
2023/06/30 00:36:25;;;;;;;924.00;862.40;;;15.20;99.90;;;;;;5074005;28;20464;-68
2023/06/30 00:38:54;;;;;;;803.83;755.40;;;15.20;99.90;;;;;;5074685;28;20446;-68
2023/06/30 00:41:22;;;;;;;769.30;725.13;;;15.00;99.90;;;;;;5074359;28;20895;-68
2023/06/30 00:43:49;;;;;;;821.30;770.60;;;15.00;99.90;;;;;;5074406;28;20486;-68
2023/06/30 00:46:18;;;;;;;816.90;764.70;;;14.90;99.90;;;;;;5073848;28;20923;-68
2023/06/30 00:48:45;;;;;;;852.97;797.97;;;14.90;99.90;;;;;;5075127;28;20465;-67
2023/06/30 00:51:14;;;;;;;876.47;819.63;;;15.00;99.90;;;;;;5094130;28;20961;-68
2023/06/30 00:53:42;;;;;;;921.97;860.80;;;15.00;99.90;;;;;;5094294;28;20446;-68
2023/06/30 00:56:08;;;;;;;960.03;895.47;;;15.00;99.90;;;;;;5093843;28;20549;-68
2023/06/30 00:58:37;;;;;;;955.83;891.43;;;15.10;99.90;;;;;;5094325;28;20460;-68
2023/06/30 01:01:12;;;;;;;978.70;910.60;;;15.20;99.90;;;;;;5094145;28;20525;-68
2023/06/30 01:03:43;;;;;;;994.80;923.90;;;15.30;99.90;;;;;;5094385;28;20478;-68
2023/06/30 01:06:15;;;;;;;989.63;918.33;;;15.30;99.90;;;;;;5093964;28;20457;-68
2023/06/30 01:08:49;;;;;;;997.90;925.97;;;14.90;99.90;;;;;;5094241;28;20456;-67
2023/06/30 01:11:17;;;;;;;976.93;906.37;;;15.10;99.90;;;;;;5094097;28;20488;-68
2023/06/30 01:13:47;;;;;;;963.80;894.77;;;15.40;99.90;;;;;;5094161;28;20456;-68
2023/06/30 01:16:15;;;;;;;957.23;889.33;;;14.90;99.90;;;;;;5093995;28;20472;-68
2023/06/30 01:18:45;;;;;;;925.27;862.07;;;14.90;99.90;;;;;;5094004;28;20453;-68
2023/06/30 01:21:14;;;;;;;833.43;778.17;;;15.30;99.90;;;;;;5093892;28;20812;-69
2023/06/30 01:23:48;;;;;;;850.13;791.03;;;14.80;99.90;;;;;;5093782;28;20473;-68
2023/06/30 01:26:16;;;;;;;886.13;823.00;;;14.70;99.90;;;;;;5093417;28;20461;-68
2023/06/30 01:28:43;;;;;;;939.37;871.33;;;15.20;99.90;;;;;;5094043;28;20446;-68
2023/06/30 01:31:12;;;;;;;981.27;908.77;;;14.70;99.90;;;;;;5093730;28;20465;-68
2023/06/30 01:33:39;;;;;;;984.77;910.97;;;14.90;99.90;;;;;;5093776;28;20870;-68
2023/06/30 01:36:07;;;;;;;1002.57;926.67;;;15.00;99.90;;;;;;5093377;28;20468;-68
2023/06/30 01:38:34;;;;;;;1012.87;935.27;;;15.30;99.90;;;;;;5093498;28;20468;-68
2023/06/30 01:41:01;;;;;;;1016.53;937.30;;;15.30;99.90;;;;;;5093297;28;20450;-69
2023/06/30 01:43:31;;;;;;;982.97;907.60;;;15.10;99.90;;;;;;5093648;28;20477;-68
2023/06/30 01:45:57;;;;;;;976.03;900.97;;;14.80;99.90;;;;;;5092727;28;20458;-68
2023/06/30 01:48:26;;;;;;;987.80;912.83;;;15.20;99.90;;;;;;5093464;28;20454;-68
2023/06/30 01:50:54;;;;;;;960.33;885.93;;;15.10;99.90;;;;;;5091228;28;20449;-68
2023/06/30 01:53:21;;;;;;;940.03;867.37;;;15.10;99.90;;;;;;5093224;28;20454;-69
2023/06/30 01:55:48;;;;;;;942.43;868.97;;;14.70;99.90;;;;;;5092861;28;20456;-68
2023/06/30 01:58:17;;;;;;;927.17;854.97;;;15.00;99.90;;;;;;5093293;28;20464;-68
2023/06/30 02:00:44;;;;;;;920.27;846.87;;;14.60;99.90;;;;;;5093142;28;20457;-68
2023/06/30 02:03:11;;;;;;;901.67;828.37;;;15.00;99.90;;;;;;5092995;28;20476;-69
2023/06/30 02:05:39;;;;;;;902.80;827.77;;;14.70;99.90;;;;;;5092676;28;20831;-68
2023/06/30 02:08:06;;;;;;;920.63;843.83;;;15.10;99.90;;;;;;5093174;28;20454;-69
2023/06/30 02:10:33;;;;;;;899.90;823.00;;;15.10;99.90;;;;;;5093017;28;20956;-69
2023/06/30 02:12:59;;;;;;;890.83;813.57;;;15.10;99.90;;;;;;5093150;28;20448;-68
2023/06/30 02:15:26;;;;;;;887.67;810.10;;;15.10;99.90;;;;;;5092514;28;21000;-68
2023/06/30 02:17:54;;;;;;;873.20;796.87;;;14.70;99.90;;;;;;5093063;28;20542;-69
2023/06/30 02:20:21;;;;;;;882.33;804.50;;;14.60;99.90;;;;;;5092947;28;20461;-68
2023/06/30 02:22:49;;;;;;;889.63;809.70;;;14.80;99.90;;;;;;5092705;28;20878;-68
2023/06/30 02:25:16;;;;;;;870.93;792.63;;;15.10;99.90;;;;;;5092740;28;20460;-68
2023/06/30 02:27:45;;;;;;;883.80;804.93;;;15.10;99.90;;;;;;5093014;28;20458;-68
2023/06/30 02:30:12;;;;;;;881.20;802.30;;;14.70;99.90;;;;;;5092801;28;20487;-68
2023/06/30 02:32:40;;;;;;;876.43;796.70;;;14.70;99.90;;;;;;5092883;28;20449;-68
2023/06/30 02:35:08;;;;;;;858.53;779.80;;;14.70;99.90;;;;;;5092050;28;20825;-68
2023/06/30 02:37:35;;;;;;;853.23;775.00;;;15.10;99.90;;;;;;5092802;28;20462;-68
2023/06/30 02:40:04;;;;;;;855.80;778.60;;;15.10;99.90;;;;;;5092785;28;20454;-68
2023/06/30 02:42:31;;;;;;;853.60;775.13;;;14.90;99.90;;;;;;5092747;28;20461;-69
2023/06/30 02:44:58;;;;;;;853.27;775.10;;;14.70;99.90;;;;;;5092372;28;20458;-68
2023/06/30 02:47:24;;;;;;;851.13;773.30;;;15.00;99.90;;;;;;5092776;28;20446;-68
2023/06/30 02:49:51;;;;;;;856.40;780.00;;;15.10;99.90;;;;;;5092350;28;21063;-68
2023/06/30 02:52:18;;;;;;;842.37;764.97;;;14.80;99.90;;;;;;5092806;28;20450;-68
2023/06/30 02:54:45;;;;;;;853.97;775.80;;;14.70;99.90;;;;;;5092295;28;20450;-68
2023/06/30 02:57:13;;;;;;;862.97;784.47;;;15.10;99.90;;;;;;5092851;28;20457;-68
2023/06/30 02:59:40;;;;;;;854.50;775.40;;;14.70;99.90;;;;;;5096565;28;20450;-68
2023/06/30 03:02:07;;;;;;;846.70;768.23;;;14.70;99.90;;;;;;5096677;28;20457;-69
2023/06/30 03:04:33;;;;;;;854.60;775.70;;;14.70;99.90;;;;;;5096185;28;20481;-68
2023/06/30 03:07:00;;;;;;;847.00;768.00;;;15.10;99.90;;;;;;5096729;28;20456;-68
2023/06/30 03:09:27;;;;;;;835.13;756.17;;;15.10;99.90;;;;;;5096543;28;20450;-69
2023/06/30 03:11:54;;;;;;;836.57;758.60;;;15.10;99.90;;;;;;5096578;28;20450;-68
2023/06/30 03:14:22;;;;;;;838.70;759.30;;;15.10;99.90;;;;;;5095975;28;20799;-68
2023/06/30 03:16:49;;;;;;;836.27;757.57;;;14.70;99.90;;;;;;5096321;28;20457;-69
2023/06/30 03:19:15;;;;;;;840.97;762.10;;;15.10;99.90;;;;;;5096318;28;20879;-68
2023/06/30 03:21:42;;;;;;;842.60;763.83;;;15.00;99.90;;;;;;5095936;28;20456;-68
2023/06/30 03:24:09;;;;;;;828.43;750.23;;;15.10;99.90;;;;;;5096224;28;20477;-69
2023/06/30 03:26:36;;;;;;;818.67;740.77;;;14.70;99.90;;;;;;5095715;28;20464;-68
2023/06/30 03:29:03;;;;;;;826.97;749.67;;;14.90;99.90;;;;;;5095757;28;20457;-68
2023/06/30 03:31:31;;;;;;;819.17;742.30;;;14.90;99.90;;;;;;5096052;28;20449;-69
2023/06/30 03:33:58;;;;;;;817.70;742.10;;;15.00;99.90;;;;;;5095710;28;20446;-69
2023/06/30 03:36:25;;;;;;;815.13;739.37;;;15.00;99.90;;;;;;5095426;28;20462;-69
2023/06/30 03:38:52;;;;;;;821.90;745.60;;;14.60;99.90;;;;;;5096039;28;20460;-68
2023/06/30 03:41:19;;;;;;;820.93;743.77;;;14.60;99.90;;;;;;5095635;28;20449;-68
2023/06/30 03:43:46;;;;;;;827.23;750.40;;;14.80;99.90;;;;;;5095680;28;21003;-68
2023/06/30 03:46:13;;;;;;;825.50;747.80;;;14.60;99.90;;;;;;5095622;28;20456;-69
2023/06/30 03:48:41;;;;;;;815.97;738.73;;;14.60;99.90;;;;;;5095909;28;20491;-69
2023/06/30 03:51:07;;;;;;;826.23;748.83;;;14.90;99.90;;;;;;5095729;28;20453;-68
2023/06/30 03:53:34;;;;;;;832.73;755.20;;;14.90;99.90;;;;;;5095749;28;20537;-68
2023/06/30 03:56:01;;;;;;;824.57;747.57;;;14.60;99.90;;;;;;5095099;28;20575;-69
2023/06/30 03:58:28;;;;;;;830.70;754.30;;;14.80;99.90;;;;;;5095408;28;20482;-69
2023/06/30 04:00:55;;;;;;;831.70;754.00;;;14.90;99.90;;;;;;5095621;28;20458;-70
2023/06/30 04:03:22;;;;;;;824.77;749.60;;;14.90;99.90;;;;;;5095226;28;20476;-70
2023/06/30 04:05:50;;;;;;;824.90;749.03;;;14.80;99.90;;;;;;5095091;28;20450;-69
2023/06/30 04:08:17;;;;;;;816.93;741.23;;;14.90;99.90;;;;;;5095429;28;20452;-70
2023/06/30 04:10:45;;;;;;;824.93;748.87;;;14.90;99.90;;;;;;5095018;28;20453;-70
2023/06/30 04:13:12;;;;;;;821.60;747.10;;;14.90;99.90;;;;;;5095009;28;20477;-70
2023/06/30 04:15:38;;;;;;;825.13;750.10;;;14.60;99.90;;;;;;5095194;28;20450;-70
2023/06/30 04:18:05;;;;;;;815.67;740.67;;;14.60;99.90;;;;;;5095063;28;20949;-70
2023/06/30 04:20:32;;;;;;;826.43;751.93;;;14.90;99.90;;;;;;5095227;28;20464;-70
2023/06/30 04:23:00;;;;;;;825.43;751.63;;;14.70;99.90;;;;;;5094998;28;20450;-70
2023/06/30 04:25:27;;;;;;;818.87;745.80;;;14.80;99.90;;;;;;5094561;28;20458;-70
2023/06/30 04:27:54;;;;;;;816.30;742.40;;;14.80;99.90;;;;;;5094994;28;20458;-70
2023/06/30 04:30:21;;;;;;;825.77;752.37;;;14.90;99.90;;;;;;5094934;28;20891;-70
2023/06/30 04:32:48;;;;;;;830.07;756.33;;;14.70;99.90;;;;;;5094979;28;20817;-70
2023/06/30 04:35:15;;;;;;;820.73;748.53;;;14.70;99.90;;;;;;5094456;28;20458;-70
2023/06/30 04:37:42;;;;;;;830.33;758.67;;;14.70;99.90;;;;;;5094890;28;20929;-71
2023/06/30 04:40:11;;;;;;;818.60;749.07;;;14.80;99.90;;;;;;5094543;28;20461;-71
2023/06/30 04:42:38;;;;;;;815.07;747.80;;;14.80;99.90;;;;;;5094638;28;20450;-71
2023/06/30 04:45:06;;;;;;;813.77;743.57;;;14.70;99.90;;;;;;5094340;28;20989;-71
2023/06/30 04:47:33;;;;;;;822.30;756.60;;;14.70;99.90;;;;;;5094744;28;20519;-71
2023/06/30 04:50:00;;;;;;;815.17;753.03;;;14.70;99.90;;;;;;5094442;28;20461;-71
2023/06/30 04:52:27;;;;;;;826.37;764.57;;;14.60;99.90;;;;;;5094551;28;20477;-71
2023/06/30 04:54:54;;;;;;;832.00;771.47;;;14.60;99.90;;;;;;5094035;28;20457;-71
2023/06/30 04:57:23;;;;;;;828.97;768.30;;;14.70;99.90;;;;;;5094606;28;20453;-71
2023/06/30 04:59:51;;;;;;;833.07;770.43;;;14.70;99.90;;;;;;5094186;28;20450;-72
2023/06/30 05:02:18;;;;;;;834.20;771.90;;;14.80;99.90;;;;;;5093970;28;20507;-71
2023/06/30 05:04:45;;;;;;;821.57;760.57;;;14.80;99.90;;;;;;5093696;28;20480;-72
2023/06/30 05:07:12;;;;;;;828.37;769.90;;;14.80;99.90;;;;;;5094170;28;20458;-73
2023/06/30 05:09:38;;;;;;;820.93;760.83;;;14.80;99.90;;;;;;5094025;28;20454;-73
2023/06/30 05:12:06;;;;;;;822.90;759.30;;;14.90;99.90;;;;;;5094306;28;20454;-73
2023/06/30 05:14:34;;;;;;;820.13;757.23;;;14.90;99.90;;;;;;5093690;28;20798;-73
2023/06/30 05:17:01;;;;;;;829.63;765.67;;;14.90;99.90;;;;;;5094232;28;20538;-73
2023/06/30 05:19:28;;;;;;;817.13;759.87;;;15.00;99.90;;;;;;5093741;28;20460;-72
2023/06/30 05:21:55;;;;;;;831.17;773.97;;;15.00;99.90;;;;;;5093421;28;20449;-73
2023/06/30 05:24:22;;;;;;;821.80;763.93;;;15.00;99.90;;;;;;5093607;28;20569;-73
2023/06/30 05:26:49;;;;;;;825.90;769.50;;;15.10;99.90;;;;;;5093969;28;20813;-72
2023/06/30 05:29:16;;;;;;;838.03;783.70;;;15.10;99.90;;;;;;5093698;28;20483;-72
2023/06/30 05:31:44;;;;;;;766.67;722.80;;;15.00;99.90;;;;;;5093852;28;20825;-72
2023/06/30 05:34:15;;;;;;;772.83;727.17;;;15.00;99.90;;;;;;5093536;28;20442;-72
2023/06/30 05:36:43;;;;;;;718.17;680.37;;;15.10;99.90;;;;;;5093687;28;20461;-73
2023/06/30 05:39:10;;;;;;;762.57;720.60;;;15.10;99.90;;;;;;5093367;28;20460;-73
2023/06/30 05:41:37;;;;;;;742.63;703.90;;;15.10;99.90;;;;;;5093520;28;20450;-73
2023/06/30 05:44:06;;;;;;;679.40;647.60;;;15.10;99.90;;;;;;5093596;28;20478;-72
2023/06/30 05:46:34;;;;;;;671.60;640.43;;;15.10;99.90;;;;;;5093212;28;20456;-72
2023/06/30 05:49:05;;;;;;;697.23;664.97;;;15.00;99.90;;;;;;5093235;28;20464;-72
2023/06/30 05:51:32;;;;;;;753.47;713.17;;;14.90;99.90;;;;;;5093385;28;20545;-72
2023/06/30 05:53:59;;;;;;;740.70;701.03;;;14.90;99.90;;;;;;5093481;28;20461;-72
2023/06/30 05:56:25;;;;;;;753.50;709.20;;;15.00;99.90;;;;;;5092878;28;20541;-73
2023/06/30 05:58:52;;;;;;;683.83;646.43;;;15.40;99.90;;;;;;5093160;28;20449;-72
2023/06/30 06:01:20;;;;;;;127.80;122.17;;;15.70;99.90;;;;;;5093232;28;20461;-72
2023/06/30 06:03:47;;;;;;;132.50;127.17;;;15.80;99.90;;;;;;5093138;28;20531;-72
2023/06/30 06:06:15;;;;;;;64.97;61.63;;;15.90;99.90;;;;;;5092641;28;20450;-71
2023/06/30 06:08:44;;;;;;;15.70;12.43;;;16.00;99.90;;;;;;5093404;28;20457;-72
2023/06/30 06:11:11;;;;;;;17.43;10.10;;;16.00;99.90;;;;;;5093095;28;20453;-71
2023/06/30 06:13:39;;;;;;;8.63;5.70;;;15.70;99.90;;;;;;5092923;28;20904;-72
2023/06/30 06:16:07;;;;;;;10.03;5.93;;;15.90;99.90;;;;;;5092521;28;20454;-72
2023/06/30 06:18:34;;;;;;;14.07;5.40;;;15.70;99.90;;;;;;5093391;28;20450;-71
2023/06/30 06:21:03;;;;;;;9.10;4.77;;;16.00;99.90;;;;;;5092728;28;20464;-72
2023/06/30 06:23:32;;;;;;;9.33;5.60;;;16.00;99.90;;;;;;5091037;28;20458;-72
2023/06/30 06:25:59;;;;;;;9.80;4.77;;;16.20;99.90;;;;;;5092380;28;20450;-71
2023/06/30 06:28:25;;;;;;;12.77;4.70;;;16.20;99.90;;;;;;5092322;28;20483;-71
2023/06/30 06:30:52;;;;;;;13.20;4.80;;;16.30;99.90;;;;;;5092667;28;20536;-73
2023/06/30 06:33:20;;;;;;;17.03;4.97;;;16.70;99.90;;;;;;5091839;28;20450;-72
2023/06/30 06:35:46;;;;;;;9.33;3.70;;;17.00;99.90;;;;;;5092081;28;20545;-72
2023/06/30 06:38:17;;;;;;;8.63;4.33;;;17.00;99.90;;;;;;5092901;28;20811;-72
2023/06/30 06:40:45;;;;;;;7.47;3.70;;;16.90;97.20;;;;;;5092329;28;20450;-71
2023/06/30 06:43:12;;;;;;;8.40;3.27;;;16.70;97.10;;;;;;5091287;28;20446;-72
2023/06/30 06:45:39;;;;;;;5.93;2.70;;;17.10;98.40;;;;;;5092514;28;20470;-72
2023/06/30 06:48:23;;;;;;;6.50;2.30;;;16.60;93.70;;;;;;5092932;28;20460;-72
2023/06/30 06:50:51;;;;;;;7.23;3.37;;;16.40;91.50;;;;;;5092496;28;20454;-71
2023/06/30 06:53:20;;;;;;;11.40;3.97;;;16.50;95.00;;;;;;5092489;28;20882;-72
2023/06/30 06:55:50;;;;;;;9.33;3.30;;;16.60;94.10;;;;;;5092285;28;20446;-71
2023/06/30 06:58:18;;;;;;;10.67;3.10;;;16.70;94.30;;;;;;5089600;28;20461;-72
2023/06/30 07:00:46;;;;;;;10.90;3.20;;;16.90;96.60;;;;;;5091263;28;20457;-72
2023/06/30 07:03:13;;;;;;;11.07;3.37;;;17.20;94.90;;;;;;5091499;28;20457;-71
2023/06/30 07:05:40;;;;;;;12.93;2.67;;;17.10;91.90;;;;;;5090808;28;20478;-72
2023/06/30 07:08:07;;;;;;;9.30;2.90;;;17.00;92.70;;;;;;5092079;28;20462;-72
2023/06/30 07:10:34;;;;;;;8.35;3.10;;;17.00;90.80;;;;;;5092470;28;20455;-71
2023/06/30 07:13:03;;;;;;;10.20;3.53;;;17.00;92.80;;;;;;5092473;28;20203;-71
2023/06/30 07:15:30;;;;;;;10.43;3.23;;;17.00;88.20;;;;;;5091777;28;20453;-70
2023/06/30 07:17:58;;;;;;;13.60;3.80;;;17.30;90.60;;;;;;5092178;28;20449;-71
2023/06/30 07:20:25;;;;;;;7.53;3.07;;;17.20;83.50;;;;;;5091922;28;20454;-71
2023/06/30 07:22:54;;;;;;;7.67;3.20;;;18.20;84.50;;;;;;5091342;28;20487;-71
2023/06/30 07:25:21;;;;;;;7.67;2.80;;;18.30;75.60;;;;;;5090903;28;20480;-71
2023/06/30 07:27:52;;;;;;;9.40;2.67;;;18.70;77.80;;;;;;5091906;28;20476;-71
2023/06/30 07:30:21;;;;;;;6.73;1.90;;;18.80;77.10;;;;;;5091771;28;20449;-72
2023/06/30 07:32:49;;;;;;;5.97;2.53;;;18.90;73.80;;;;;;5092114;28;20450;-72
2023/06/30 07:35:17;;;;;;;8.13;2.57;;;19.10;69.30;;;;;;5091531;28;20504;-72
2023/06/30 07:37:44;;;;;;;7.13;2.13;;;19.20;69.40;;;;;;5092119;28;20507;-71
2023/06/30 07:40:12;;;;;;;6.40;2.20;;;18.90;62.30;;;;;;5091737;28;20450;-71
2023/06/30 07:42:39;;;;;;;5.53;2.20;;;19.00;60.90;;;;;;5091964;28;20567;-71
2023/06/30 07:45:09;;;;;;;6.77;1.87;;;18.90;52.20;;;;;;5094312;28;20564;-71
2023/06/30 07:47:37;;;;;;;9.67;2.07;;;18.90;52.20;;;;;;5095235;28;20457;-71
2023/06/30 07:50:09;;;;;;;5.80;1.83;;;18.80;57.50;;;;;;5095138;28;20465;-71
2023/06/30 07:52:36;;;;;;;6.73;2.40;;;18.80;55.10;;;;;;5095480;28;20821;-71
2023/06/30 07:55:04;;;;;;;6.47;1.73;;;19.00;57.30;;;;;;5094774;28;20446;-71
2023/06/30 07:57:30;;;;;;;8.37;1.60;;;19.20;46.80;;;;;;5095259;28;20816;-71
2023/06/30 07:59:57;;;;;;;8.00;1.60;;;19.20;52.50;;;;;;5095000;28;20456;-71
2023/06/30 08:02:24;;;;;;;10.93;2.07;;;18.90;49.20;;;;;;5095005;28;20461;-71
2023/06/30 08:04:52;;;;;;;8.60;1.70;;;19.40;50.00;;;;;;5094774;28;20568;-71
2023/06/30 08:07:19;;;;;;;5.17;1.43;;;19.40;43.80;;;;;;5095081;28;20454;-71
2023/06/30 08:09:46;;;;;;;8.47;3.17;;;19.50;47.50;;;;;;5095239;28;20465;-71
2023/06/30 08:12:12;;;;;;;9.10;2.03;;;19.40;43.80;;;;;;5094816;28;20461;-71
2023/06/30 08:14:39;;;;;;;5.57;1.77;;;19.30;46.10;;;;;;5094167;28;20452;-72
2023/06/30 08:17:06;;;;;;;4.80;1.90;;;20.00;44.40;;;;;;5095032;28;20460;-71
2023/06/30 08:19:33;;;;;;;4.57;1.30;;;20.00;39.10;;;;;;5094728;28;20450;-72
2023/06/30 08:22:02;;;;;;;6.80;1.70;;;19.70;38.70;;;;;;5094549;28;20460;-72
2023/06/30 08:24:29;;;;;;;6.00;2.07;;;20.10;36.50;;;;;;5094048;28;20988;-72
2023/06/30 08:26:55;;;;;;;7.90;1.77;;;20.00;35.30;;;;;;5094640;28;20449;-71
2023/06/30 08:29:22;;;;;;;8.93;1.90;;;20.00;39.10;;;;;;5094441;28;20453;-71
2023/06/30 08:31:49;;;;;;;5.00;1.50;;;20.10;35.40;;;;;;5094502;28;20454;-71
2023/06/30 08:34:16;;;;;;;6.20;1.90;;;20.40;35.70;;;;;;5094165;28;20450;-71
2023/06/30 08:36:43;;;;;;;7.60;1.80;;;20.00;32.60;;;;;;5094511;28;20560;-71
2023/06/30 08:39:13;;;;;;;7.43;2.10;;;19.90;35.20;;;;;;5094168;28;20462;-71
2023/06/30 08:41:41;;;;;;;8.37;2.40;;;20.10;35.40;;;;;;5094229;28;20457;-71
2023/06/30 08:44:07;;;;;;;8.33;1.63;;;20.60;27.40;;;;;;5094239;28;20481;-71
2023/06/30 08:46:34;;;;;;;6.10;1.60;;;20.40;27.40;;;;;;5093947;28;20473;-71
2023/06/30 08:49:02;;;;;;;9.53;2.07;;;20.60;34.70;;;;;;5094220;28;20454;-71
2023/06/30 08:51:30;;;;;;;6.07;1.63;;;20.60;31.50;;;;;;5094202;28;20458;-71
2023/06/30 08:53:58;;;;;;;6.00;2.03;;;20.90;28.50;;;;;;5094078;28;20460;-71
2023/06/30 08:56:27;;;;;;;7.40;1.57;;;21.00;33.80;;;;;;5092529;28;20449;-71
2023/06/30 08:58:54;;;;;;;8.27;1.80;;;21.10;29.30;;;;;;5094202;28;20453;-71
2023/06/30 09:01:21;;;;;;;8.93;1.93;;;21.40;28.00;;;;;;5094019;28;20454;-72
2023/06/30 09:03:49;;;;;;;7.90;2.20;;;21.60;25.30;;;;;;5093912;28;20462;-72
2023/06/30 09:06:16;;;;;;;10.27;2.20;;;21.80;28.80;;;;;;5093512;28;20480;-71
2023/06/30 09:08:52;;;;;;;8.17;2.60;;;22.20;31.80;;;;;;5093711;28;20460;-71
2023/06/30 09:11:23;;;;;;;4.90;1.50;;;21.70;28.20;;;;;;5093573;28;20936;-71
2023/06/30 09:13:53;;;;;;;5.37;1.70;;;22.40;26.70;;;;;;5093643;28;20461;-72
2023/06/30 09:16:20;;;;;;;6.67;1.50;;;22.60;16.90;;;;;;5093206;28;20520;-71
2023/06/30 09:18:48;;;;;;;5.93;1.40;;;22.80;21.70;;;;;;5093782;28;20450;-71
2023/06/30 09:21:15;;;;;;;5.03;1.50;;;22.80;19.50;;;;;;5093245;28;20450;-71
2023/06/30 09:23:43;;;;;;;8.20;1.80;;;23.20;18.60;;;;;;5093407;28;20450;-72
2023/06/30 09:26:14;;;;;;;10.77;2.10;;;22.70;15.00;;;;;;5092837;28;21051;-71
2023/06/30 09:28:43;;;;;;;6.13;1.23;;;22.40;16.50;;;;;;5093516;28;20526;-71
2023/06/30 09:31:11;;;;;;;8.37;1.97;;;22.70;14.10;;;;;;5093314;28;20957;-71
2023/06/30 09:33:40;;;;;;;7.10;1.70;;;22.80;17.00;;;;;;5093298;28;20901;-71
2023/06/30 09:36:08;;;;;;;6.00;1.47;;;23.60;14.80;;;;;;5092902;28;20458;-71
2023/06/30 09:38:36;;;;;;;5.70;1.80;;;23.70;14.90;;;;;;5093530;28;20536;-69
2023/06/30 09:41:05;;;;;;;6.40;1.50;;;23.40;7.00;;;;;;5093212;28;20449;-71
2023/06/30 09:43:32;;;;;;;6.40;1.20;;;23.80;9.40;;;;;;5093176;28;20457;-71
2023/06/30 09:46:01;;;;;;;7.10;1.70;;;24.80;8.00;;;;;;5092758;28;20474;-71
2023/06/30 09:48:33;;;;;;;6.03;1.63;;;24.00;2.30;;;;;;5093042;28;20446;-69
2023/06/30 09:51:00;;;;;;;5.90;1.93;;;23.30;6.90;;;;;;5093060;28;20445;-71
2023/06/30 09:53:28;;;;;;;5.70;1.50;;;23.40;1.90;;;;;;5093060;28;20457;-71
2023/06/30 09:55:55;;;;;;;5.40;1.43;;;24.10;6.40;;;;;;5092673;28;20486;-72
2023/06/30 09:58:22;;;;;;;5.70;1.57;;;24.40;1.00;;;;;;5093113;28;20819;-71
2023/06/30 10:00:51;;;;;;;5.67;1.40;;;24.80;1.00;;;;;;5092813;28;20518;-71
2023/06/30 10:03:18;;;;;;;6.50;1.40;;;24.60;3.20;;;;;;5092891;28;20451;-69
2023/06/30 10:05:48;;;;;;;5.70;1.20;;;23.60;7.10;;;;;;5092249;28;21000;-70
2023/06/30 10:08:16;;;;;;;5.83;1.63;;;22.90;1.10;;;;;;5092755;28;20460;-70
2023/06/30 10:10:43;;;;;;;4.63;1.37;;;23.30;2.30;;;;;;5092806;28;20456;-70
2023/06/30 10:13:12;;;;;;;5.40;1.50;;;23.60;1.00;;;;;;5092787;28;20549;-70
2023/06/30 10:15:39;;;;;;;5.93;1.27;;;24.50;1.90;;;;;;5092340;28;20446;-70
2023/06/30 10:18:10;;;;;;;7.13;1.50;;;25.10;1.00;;;;;;5093261;28;20937;-71
2023/06/30 10:20:38;;;;;;;4.83;1.40;;;25.30;1.00;;;;;;5092915;28;20499;-71
2023/06/30 10:23:06;;;;;;;5.00;1.37;;;24.90;1.00;;;;;;5092993;28;20450;-70
2023/06/30 10:25:36;;;;;;;7.87;3.70;;;25.10;1.00;;;;;;5092751;28;20478;-71
2023/06/30 10:28:03;;;;;;;10.87;1.47;;;25.40;1.00;;;;;;5092806;28;20458;-71
2023/06/30 10:30:30;;;;;;;5.47;1.50;;;25.20;1.00;;;;;;5092949;28;20458;-71
2023/06/30 10:32:57;;;;;;;4.93;1.30;;;25.10;1.00;;;;;;5093209;28;20450;-71
2023/06/30 10:35:25;;;;;;;5.93;1.33;;;24.30;1.00;;;;;;5092153;28;20494;-71
2023/06/30 10:37:53;;;;;;;5.10;1.37;;;24.40;1.00;;;;;;5091857;28;20787;-71
2023/06/30 10:40:28;;;;;;;5.30;1.50;;;24.30;1.00;;;;;;5091666;28;20504;-71
2023/06/30 10:42:56;;;;;;;5.83;1.87;;;25.10;1.00;;;;;;5091577;28;20459;-71
2023/06/30 10:45:29;;;;;;;5.43;1.47;;;26.50;1.00;;;;;;5091437;28;20967;-72
2023/06/30 10:47:56;;;;;;;7.50;1.60;;;26.00;1.00;;;;;;5092188;28;20452;-71
2023/06/30 10:50:23;;;;;;;5.43;1.50;;;25.60;1.00;;;;;;5091822;28;20455;-71
2023/06/30 10:52:51;;;;;;;10.40;2.00;;;25.30;1.00;;;;;;5091649;28;20934;-71
2023/06/30 10:55:21;;;;;;;5.63;1.67;;;25.20;1.00;;;;;;5091523;28;20452;-72
2023/06/30 10:57:53;;;;;;;6.03;1.63;;;25.60;1.00;;;;;;5091758;28;20942;-71
2023/06/30 11:00:24;;;;;;;4.50;1.23;;;25.50;1.00;;;;;;5091563;28;20932;-70
2023/06/30 11:02:56;;;;;;;6.70;1.97;;;25.60;1.00;;;;;;5091775;28;20451;-69
2023/06/30 11:05:25;;;;;;;7.60;1.30;;;24.60;1.00;;;;;;5090946;28;20574;-69
2023/06/30 11:07:53;;;;;;;5.80;1.70;;;24.60;1.00;;;;;;5091506;28;20461;-70
2023/06/30 11:10:27;;;;;;;5.90;1.50;;;24.40;1.00;;;;;;5091761;28;20511;-70
2023/06/30 11:12:56;;;;;;;5.37;1.60;;;23.70;1.00;;;;;;5091697;28;20448;-67
2023/06/30 11:15:28;;;;;;;4.80;1.50;;;24.20;1.00;;;;;;5091406;28;20449;-69
2023/06/30 11:18:02;;;;;;;4.60;1.53;;;24.70;1.00;;;;;;5091468;28;20557;-70
2023/06/30 11:20:30;;;;;;;4.73;1.47;;;24.70;1.00;;;;;;5095143;28;20510;-70
2023/06/30 11:23:00;;;;;;;5.50;1.60;;;25.10;1.00;;;;;;5095062;28;20480;-68
2023/06/30 11:25:28;;;;;;;6.27;1.50;;;25.10;1.00;;;;;;5094602;28;20815;-69
2023/06/30 11:27:56;;;;;;;5.57;1.40;;;25.40;1.00;;;;;;5094991;28;20547;-69
2023/06/30 11:30:24;;;;;;;5.37;1.47;;;25.60;1.00;;;;;;5094740;28;20525;-68
2023/06/30 11:33:00;;;;;;;7.50;1.60;;;25.30;1.00;;;;;;5094664;28;20460;-71
2023/06/30 11:35:29;;;;;;;5.87;2.00;;;25.30;1.00;;;;;;5057319;28;1080083;-69
2023/06/30 11:37:56;;;;;;;5.63;2.10;;;25.80;1.00;;;;;;5096017;28;20294;-69
2023/06/30 11:40:23;;;;;;;6.20;1.50;;;25.40;1.00;;;;;;5095899;28;21004;-70
2023/06/30 11:42:51;;;;;;;6.27;2.10;;;25.30;1.00;;;;;;5095967;28;20461;-69
2023/06/30 11:45:21;;;;;;;6.30;2.50;;;25.50;1.00;;;;;;5095589;28;20453;-68
2023/06/30 11:47:51;;;;;;;6.30;2.17;;;24.70;1.00;;;;;;5095969;28;20488;-70
2023/06/30 11:50:18;;;;;;;7.97;1.90;;;24.20;1.00;;;;;;5095920;28;20467;-69
2023/06/30 11:52:47;;;;;;;6.50;1.90;;;24.10;1.00;;;;;;5095549;28;20545;-69
2023/06/30 11:55:15;;;;;;;8.33;2.47;;;24.00;1.00;;;;;;5095426;28;20454;-70
2023/06/30 11:57:43;;;;;;;5.70;1.97;;;24.00;1.00;;;;;;5095723;28;20454;-72
2023/06/30 12:00:12;;;;;;;6.00;1.87;;;24.00;1.00;;;;;;5095709;28;20450;-69
2023/06/30 12:02:43;;;;;;;6.23;1.87;;;23.70;1.00;;;;;;5095763;28;20947;-68
2023/06/30 12:05:14;;;;;;;4.87;1.77;;;24.30;1.00;;;;;;5095050;28;20454;-71
2023/06/30 12:07:43;;;;;;;6.60;2.27;;;25.10;1.00;;;;;;5095455;28;20454;-69
2023/06/30 12:10:10;;;;;;;6.40;1.93;;;26.10;1.00;;;;;;5095277;28;20959;-69
2023/06/30 12:12:38;;;;;;;5.97;2.07;;;25.80;1.00;;;;;;5095732;28;20479;-68
2023/06/30 12:15:08;;;;;;;10.90;3.30;;;24.70;1.00;;;;;;5095231;28;20460;-68
2023/06/30 12:17:42;;;;;;;5.83;2.23;;;24.20;1.00;;;;;;5095359;28;20982;-69
2023/06/30 12:20:10;;;;;;;8.77;2.13;;;24.80;1.00;;;;;;5095143;28;20465;-69
2023/06/30 12:22:38;;;;;;;6.90;2.10;;;26.20;1.00;;;;;;5095271;28;20456;-68
2023/06/30 12:25:11;;;;;;;5.90;2.13;;;25.20;1.00;;;;;;5094939;28;20491;-71
2023/06/30 12:27:41;;;;;;;9.23;2.53;;;24.40;1.00;;;;;;5095061;28;20475;-70
2023/06/30 12:30:17;;;;;;;5.30;2.03;;;23.80;1.00;;;;;;5094888;28;20454;-71
2023/06/30 12:32:46;;;;;;;8.67;3.20;;;24.60;1.00;;;;;;5095196;28;20457;-72